EGYM

RAF Marham Airport

Marham, United Kingdom
METAR EGYM 151250Z 33014KT 6000 -SHRA BKN010 BKN030 04/03 Q0998 GRN TEMPO 4000 SHRA GRN
Observed Flight Rules
Dec-15 @ 12:50 UTC (an hour ago) Marginal Visual Flight Rules
Wind Visibility Clouds Conditions
330° at 14 knots 6,003 meters
  • Broken at 1,000' AGL
  • Broken at 3,000' AGL
  • Light Rain
Temperatures Readings
Current 4°C / 39°F
Dewpoint 3°C / 37°F
Humidity 93%
Altimeter 29.47" Hg
Pressure 998 hPa
Elevation 23
METAR EGYM 151250Z 33014KT 6000 -SHRA BKN010 BKN030 04/03 Q0998 GRN TEMPO 4000 SHRA GRN
Observed Flight Rules
Dec-15 @ 12:50 UTC
(an hour ago)
MVFR
Wind Visibility
330° at 14 knots 6,003 meters
Clouds
  • Broken at 1,000' AGL
  • Broken at 3,000' AGL
Conditions
  • Light Rain
Temperature Dewpoint
4°C / 39°F 3°C / 37°F
Humidity Altimeter Pressure
93% 29.47" Hg 998 hPa